ESOE

Örebro Airport

Örebro, Sweden
METAR ESOE 221750Z AUTO 11007KT 9999 NCD 14/00 Q1013
Observed Flight Rules
Apr-22 @ 17:50 UTC (15 minutes ago) Visual Flight Rules
Wind Visibility Clouds
110° at 7 knots 10,000+ meters
  • Clear skies
Temperatures Readings
Current 14°C / 57°F
Dewpoint 0°C / 32°F
Humidity 39%
Altimeter 29.91" Hg
Pressure 1013 hPa
Elevation 57
METAR ESOE 221750Z AUTO 11007KT 9999 NCD 14/00 Q1013
Observed Flight Rules
Apr-22 @ 17:50 UTC
(15 minutes ago)
VFR
Wind Visibility
110° at 7 knots 10,000+ meters
Clouds
  • Clear skies
Temperature Dewpoint
14°C / 57°F 0°C / 32°F
Humidity Altimeter Pressure
39% 29.91" Hg 1013 hPa